sensor_id;sensor_type;location;lat;lon;timestamp;pressure;altitude;pressure_sealevel;temperature;humidity
54306;BME280;66145;45.188;5.712;2023-08-08T00:01:02;99417.22;;;21.08;50.34
54306;BME280;66145;45.188;5.712;2023-08-08T00:03:28;99397.50;;;20.97;50.19
54306;BME280;66145;45.188;5.712;2023-08-08T00:05:53;99414.28;;;21.04;50.43
54306;BME280;66145;45.188;5.712;2023-08-08T00:08:19;99406.88;;;20.96;50.60
54306;BME280;66145;45.188;5.712;2023-08-08T00:10:44;99421.09;;;21.07;50.73
54306;BME280;66145;45.188;5.712;2023-08-08T00:13:09;99414.28;;;21.04;50.79
54306;BME280;66145;45.188;5.712;2023-08-08T00:15:35;99416.06;;;21.09;50.76
54306;BME280;66145;45.188;5.712;2023-08-08T00:18:01;99395.53;;;20.97;50.96
54306;BME280;66145;45.188;5.712;2023-08-08T00:20:26;99413.63;;;21.07;50.83
54306;BME280;66145;45.188;5.712;2023-08-08T00:22:52;99407.16;;;21.03;51.04
54306;BME280;66145;45.188;5.712;2023-08-08T00:25:17;99365.28;;;20.89;50.97
54306;BME280;66145;45.188;5.712;2023-08-08T00:27:42;99413.00;;;21.10;51.10
54306;BME280;66145;45.188;5.712;2023-08-08T00:30:10;99413.78;;;21.11;50.91
54306;BME280;66145;45.188;5.712;2023-08-08T00:32:36;99403.97;;;21.01;51.16
54306;BME280;66145;45.188;5.712;2023-08-08T00:35:01;99396.16;;;21.03;50.82
54306;BME280;66145;45.188;5.712;2023-08-08T00:37:27;99381.63;;;20.94;51.28
54306;BME280;66145;45.188;5.712;2023-08-08T00:39:52;99397.13;;;21.07;51.22
54306;BME280;66145;45.188;5.712;2023-08-08T00:42:17;99403.13;;;21.09;50.96
54306;BME280;66145;45.188;5.712;2023-08-08T00:44:43;99392.47;;;21.08;51.28
54306;BME280;66145;45.188;5.712;2023-08-08T00:47:09;99382.13;;;20.96;51.36
54306;BME280;66145;45.188;5.712;2023-08-08T00:49:35;99404.75;;;21.10;51.50
54306;BME280;66145;45.188;5.712;2023-08-08T00:52:01;99401.84;;;21.07;51.57
54306;BME280;66145;45.188;5.712;2023-08-08T00:54:27;99386.78;;;21.04;51.27
54306;BME280;66145;45.188;5.712;2023-08-08T00:56:52;99398.41;;;21.10;51.62
54306;BME280;66145;45.188;5.712;2023-08-08T00:59:19;99403.78;;;21.06;51.37
54306;BME280;66145;45.188;5.712;2023-08-08T01:01:44;99412.81;;;21.16;51.47
54306;BME280;66145;45.188;5.712;2023-08-08T01:04:10;99390.84;;;21.07;51.80
54306;BME280;66145;45.188;5.712;2023-08-08T01:06:43;99409.59;;;21.14;51.75
54306;BME280;66145;45.188;5.712;2023-08-08T01:09:48;99404.09;;;21.14;51.61
54306;BME280;66145;45.188;5.712;2023-08-08T01:12:17;99397.75;;;21.13;51.89
54306;BME280;66145;45.188;5.712;2023-08-08T01:14:43;99374.03;;;21.00;51.87
54306;BME280;66145;45.188;5.712;2023-08-08T01:17:10;99375.28;;;21.02;51.68
54306;BME280;66145;45.188;5.712;2023-08-08T01:19:37;99392.13;;;21.09;52.11
54306;BME280;66145;45.188;5.712;2023-08-08T01:22:05;99388.38;;;21.14;51.69
54306;BME280;66145;45.188;5.712;2023-08-08T01:24:32;99386.75;;;21.13;51.92
54306;BME280;66145;45.188;5.712;2023-08-08T01:26:59;99392.59;;;21.11;51.81
54306;BME280;66145;45.188;5.712;2023-08-08T01:29:25;99392.25;;;21.13;51.86
54306;BME280;66145;45.188;5.712;2023-08-08T01:31:51;99388.72;;;21.12;51.93
54306;BME280;66145;45.188;5.712;2023-08-08T01:34:16;99396.63;;;21.14;51.91
54306;BME280;66145;45.188;5.712;2023-08-08T01:37:10;99396.63;;;21.14;51.96
54306;BME280;66145;45.188;5.712;2023-08-08T01:39:37;99390.50;;;21.08;52.03
54306;BME280;66145;45.188;5.712;2023-08-08T01:42:06;99404.72;;;21.19;52.03
54306;BME280;66145;45.188;5.712;2023-08-08T01:44:31;99396.50;;;21.10;51.98
54306;BME280;66145;45.188;5.712;2023-08-08T01:46:57;99405.84;;;21.18;52.20
54306;BME280;66145;45.188;5.712;2023-08-08T01:49:23;99412.16;;;21.19;52.13
54306;BME280;66145;45.188;5.712;2023-08-08T01:51:48;99397.63;;;21.09;52.39
54306;BME280;66145;45.188;5.712;2023-08-08T01:54:15;99405.38;;;21.16;52.13
54306;BME280;66145;45.188;5.712;2023-08-08T01:56:41;99398.75;;;21.08;52.64
54306;BME280;66145;45.188;5.712;2023-08-08T01:59:06;99403.47;;;21.08;52.54
54306;BME280;66145;45.188;5.712;2023-08-08T02:01:32;99411.00;;;21.20;52.54
54306;BME280;66145;45.188;5.712;2023-08-08T02:03:57;99411.50;;;21.22;52.38
54306;BME280;66145;45.188;5.712;2023-08-08T02:06:22;99396.81;;;21.09;52.86
54306;BME280;66145;45.188;5.712;2023-08-08T02:08:47;99385.16;;;21.03;52.32
54306;BME280;66145;45.188;5.712;2023-08-08T02:11:13;99413.31;;;21.18;52.96
54306;BME280;66145;45.188;5.712;2023-08-08T02:13:38;99409.56;;;21.22;52.72
54306;BME280;66145;45.188;5.712;2023-08-08T02:16:04;99399.38;;;21.14;52.57
54306;BME280;66145;45.188;5.712;2023-08-08T02:18:29;99409.88;;;21.21;52.42
54306;BME280;66145;45.188;5.712;2023-08-08T02:20:54;99405.50;;;21.20;52.66
54306;BME280;66145;45.188;5.712;2023-08-08T02:23:20;99408.75;;;21.22;52.66
54306;BME280;66145;45.188;5.712;2023-08-08T02:25:45;99399.72;;;21.12;52.63
54306;BME280;66145;45.188;5.712;2023-08-08T02:28:10;99396.31;;;21.16;52.47
54306;BME280;66145;45.188;5.712;2023-08-08T02:30:37;99398.72;;;21.17;52.38
54306;BME280;66145;45.188;5.712;2023-08-08T02:33:03;99403.91;;;21.19;52.73
54306;BME280;66145;45.188;5.712;2023-08-08T02:35:28;99413.47;;;21.21;52.66
54306;BME280;66145;45.188;5.712;2023-08-08T02:37:55;99415.56;;;21.24;52.50
54306;BME280;66145;45.188;5.712;2023-08-08T02:40:20;99414.91;;;21.19;52.84
54306;BME280;66145;45.188;5.712;2023-08-08T02:42:48;99402.13;;;21.14;52.61
54306;BME280;66145;45.188;5.712;2023-08-08T02:45:14;99394.69;;;21.15;52.37
54306;BME280;66145;45.188;5.712;2023-08-08T02:47:39;99411.84;;;21.20;52.68
54306;BME280;66145;45.188;5.712;2023-08-08T02:50:04;99419.94;;;21.25;52.71
54306;BME280;66145;45.188;5.712;2023-08-08T02:52:30;99405.72;;;21.15;52.69
54306;BME280;66145;45.188;5.712;2023-08-08T02:54:55;99397.94;;;21.17;52.70
54306;BME280;66145;45.188;5.712;2023-08-08T02:57:20;99391.78;;;21.11;52.47
54306;BME280;66145;45.188;5.712;2023-08-08T02:59:46;99398.59;;;21.14;52.39
54306;BME280;66145;45.188;5.712;2023-08-08T03:02:11;99418.31;;;21.24;52.48
54306;BME280;66145;45.188;5.712;2023-08-08T03:04:37;99401.34;;;21.14;52.73
54306;BME280;66145;45.188;5.712;2023-08-08T03:07:02;99414.59;;;21.20;52.95
54306;BME280;66145;45.188;5.712;2023-08-08T03:09:29;99414.59;;;21.11;52.83
54306;BME280;66145;45.188;5.712;2023-08-08T03:11:55;99399.09;;;21.07;52.69
54306;BME280;66145;45.188;5.712;2023-08-08T03:14:20;99424.94;;;21.23;52.67
54306;BME280;66145;45.188;5.712;2023-08-08T03:16:45;99417.19;;;21.17;52.83
54306;BME280;66145;45.188;5.712;2023-08-08T03:19:11;99427.03;;;21.26;52.62
54306;BME280;66145;45.188;5.712;2023-08-08T03:21:36;99405.06;;;21.09;52.90
54306;BME280;66145;45.188;5.712;2023-08-08T03:24:02;99415.88;;;21.14;52.65
54306;BME280;66145;45.188;5.712;2023-08-08T03:26:27;99417.50;;;21.15;52.56
54306;BME280;66145;45.188;5.712;2023-08-08T03:28:52;99418.00;;;21.17;52.69
54306;BME280;66145;45.188;5.712;2023-08-08T03:31:19;99410.56;;;21.09;52.75
54306;BME280;66145;45.188;5.712;2023-08-08T03:33:45;99430.44;;;21.23;52.93
54306;BME280;66145;45.188;5.712;2023-08-08T03:36:10;99408.63;;;21.09;52.94
54306;BME280;66145;45.188;5.712;2023-08-08T03:38:35;99417.19;;;21.17;52.51
54306;BME280;66145;45.188;5.712;2023-08-08T03:41:03;99391.00;;;21.02;52.54
54306;BME280;66145;45.188;5.712;2023-08-08T03:43:28;99416.06;;;21.18;52.39
54306;BME280;66145;45.188;5.712;2023-08-08T03:45:54;99407.16;;;21.12;52.94
54306;BME280;66145;45.188;5.712;2023-08-08T03:48:19;99410.06;;;21.16;52.53
54306;BME280;66145;45.188;5.712;2023-08-08T03:50:44;99422.50;;;21.22;52.56
54306;BME280;66145;45.188;5.712;2023-08-08T03:53:11;99410.06;;;21.16;52.89
54306;BME280;66145;45.188;5.712;2023-08-08T03:55:37;99435.94;;;21.23;52.66
54306;BME280;66145;45.188;5.712;2023-08-08T03:58:02;99426.88;;;21.23;52.71
54306;BME280;66145;45.188;5.712;2023-08-08T04:00:28;99417.66;;;21.19;52.96
54306;BME280;66145;45.188;5.712;2023-08-08T04:02:53;99433.19;;;21.23;53.00
54306;BME280;66145;45.188;5.712;2023-08-08T04:05:18;99433.34;;;21.27;52.68
54306;BME280;66145;45.188;5.712;2023-08-08T04:07:44;99408.63;;;21.09;52.61
54306;BME280;66145;45.188;5.712;2023-08-08T04:10:10;99433.50;;;21.31;52.72
54306;BME280;66145;45.188;5.712;2023-08-08T04:12:35;99439.97;;;21.26;52.68
54306;BME280;66145;45.188;5.712;2023-08-08T04:15:01;99415.25;;;21.08;52.66
54306;BME280;66145;45.188;5.712;2023-08-08T04:17:27;99426.72;;;21.19;52.66
54306;BME280;66145;45.188;5.712;2023-08-08T04:19:52;99438.34;;;21.25;52.73
54306;BME280;66145;45.188;5.712;2023-08-08T04:22:17;99434.00;;;21.24;52.65
54306;BME280;66145;45.188;5.712;2023-08-08T04:24:43;99433.03;;;21.20;52.83
54306;BME280;66145;45.188;5.712;2023-08-08T04:27:08;99415.59;;;21.07;52.61
54306;BME280;66145;45.188;5.712;2023-08-08T04:29:34;99448.09;;;21.22;52.73
54306;BME280;66145;45.188;5.712;2023-08-08T04:31:59;99445.47;;;21.26;52.55
54306;BME280;66145;45.188;5.712;2023-08-08T04:34:25;99452.25;;;21.28;52.63
54306;BME280;66145;45.188;5.712;2023-08-08T04:36:50;99450.34;;;21.29;52.58
54306;BME280;66145;45.188;5.712;2023-08-08T04:39:15;99441.28;;;21.20;52.81
54306;BME280;66145;45.188;5.712;2023-08-08T04:41:41;99447.09;;;21.27;53.04
54306;BME280;66145;45.188;5.712;2023-08-08T04:44:06;99448.22;;;21.26;53.01
54306;BME280;66145;45.188;5.712;2023-08-08T04:46:31;99446.47;;;21.21;53.10
54306;BME280;66145;45.188;5.712;2023-08-08T04:48:57;99452.94;;;21.17;52.38
54306;BME280;66145;45.188;5.712;2023-08-08T04:51:22;99438.06;;;21.09;52.14
54306;BME280;66145;45.188;5.712;2023-08-08T04:53:47;99453.41;;;21.19;52.47
54306;BME280;66145;45.188;5.712;2023-08-08T04:56:13;99438.53;;;21.11;52.15
54306;BME280;66145;45.188;5.712;2023-08-08T04:58:38;99411.22;;;20.97;52.08
54306;BME280;66145;45.188;5.712;2023-08-08T05:01:03;99422.22;;;21.06;51.86
54306;BME280;66145;45.188;5.712;2023-08-08T05:03:29;99430.47;;;21.06;51.71
54306;BME280;66145;45.188;5.712;2023-08-08T05:05:54;99441.94;;;21.17;52.01
54306;BME280;66145;45.188;5.712;2023-08-08T05:08:19;99450.34;;;21.20;51.80
54306;BME280;66145;45.188;5.712;2023-08-08T05:10:45;99436.75;;;21.15;51.63
54306;BME280;66145;45.188;5.712;2023-08-08T05:13:10;99421.09;;;21.07;51.88
54306;BME280;66145;45.188;5.712;2023-08-08T05:15:36;99453.09;;;21.20;51.74
54306;BME280;66145;45.188;5.712;2023-08-08T05:18:01;99420.13;;;21.03;51.53
54306;BME280;66145;45.188;5.712;2023-08-08T05:20:26;99436.09;;;21.18;51.59
54306;BME280;66145;45.188;5.712;2023-08-08T05:22:52;99445.84;;;21.16;51.73
54306;BME280;66145;45.188;5.712;2023-08-08T05:25:17;99440.47;;;21.19;51.56
54306;BME280;66145;45.188;5.712;2023-08-08T05:27:43;99437.59;;;21.16;51.47
54306;BME280;66145;45.188;5.712;2023-08-08T05:30:08;99435.63;;;21.16;51.20
54306;BME280;66145;45.188;5.712;2023-08-08T05:32:34;99444.84;;;21.20;51.51
54306;BME280;66145;45.188;5.712;2023-08-08T05:34:59;99444.53;;;21.13;51.39
54306;BME280;66145;45.188;5.712;2023-08-08T05:37:26;99452.47;;;21.15;51.56
54306;BME280;66145;45.188;5.712;2023-08-08T05:39:51;99458.91;;;21.19;51.33
54306;BME280;66145;45.188;5.712;2023-08-08T05:42:17;99466.84;;;21.20;51.56
54306;BME280;66145;45.188;5.712;2023-08-08T05:44:43;99464.91;;;21.21;51.25
54306;BME280;66145;45.188;5.712;2023-08-08T05:47:08;99471.38;;;21.25;51.42
54306;BME280;66145;45.188;5.712;2023-08-08T05:49:33;99471.53;;;21.20;51.33
54306;BME280;66145;45.188;5.712;2023-08-08T05:51:59;99465.88;;;21.16;51.58
54306;BME280;66145;45.188;5.712;2023-08-08T05:54:24;99457.47;;;21.12;51.33
54306;BME280;66145;45.188;5.712;2023-08-08T05:56:49;99478.50;;;21.00;50.10
54306;BME280;66145;45.188;5.712;2023-08-08T05:59:15;99453.59;;;20.87;50.37
54306;BME280;66145;45.188;5.712;2023-08-08T06:01:40;99481.09;;;21.05;50.91
54306;BME280;66145;45.188;5.712;2023-08-08T06:04:06;99473.00;;;21.08;51.07
54306;BME280;66145;45.188;5.712;2023-08-08T06:06:31;99475.41;;;21.10;50.74
54306;BME280;66145;45.188;5.712;2023-08-08T06:08:57;99480.75;;;21.15;51.30
54306;BME280;66145;45.188;5.712;2023-08-08T06:11:22;99462.84;;;21.09;51.03
54306;BME280;66145;45.188;5.712;2023-08-08T06:13:48;99476.88;;;21.16;51.07
54306;BME280;66145;45.188;5.712;2023-08-08T06:16:14;99456.34;;;21.05;51.19
54306;BME280;66145;45.188;5.712;2023-08-08T06:18:41;99479.31;;;21.18;51.20
54306;BME280;66145;45.188;5.712;2023-08-08T06:21:06;99483.34;;;21.20;51.23
54306;BME280;66145;45.188;5.712;2023-08-08T06:23:32;99483.50;;;21.15;51.28
54306;BME280;66145;45.188;5.712;2023-08-08T06:25:57;99474.97;;;21.08;51.36
54306;BME280;66145;45.188;5.712;2023-08-08T06:28:23;99474.78;;;21.13;51.22
54306;BME280;66145;45.188;5.712;2023-08-08T06:30:48;99489.00;;;21.15;51.44
54306;BME280;66145;45.188;5.712;2023-08-08T06:33:14;99470.41;;;21.03;51.59
54306;BME280;66145;45.188;5.712;2023-08-08T06:35:39;99485.97;;;21.17;51.41
54306;BME280;66145;45.188;5.712;2023-08-08T06:38:04;99454.75;;;20.95;51.42
54306;BME280;66145;45.188;5.712;2023-08-08T06:40:30;99485.13;;;21.16;51.48
54306;BME280;66145;45.188;5.712;2023-08-08T06:42:55;99497.91;;;21.21;51.57
54306;BME280;66145;45.188;5.712;2023-08-08T06:45:21;99476.56;;;21.09;51.47
54306;BME280;66145;45.188;5.712;2023-08-08T06:47:46;99499.03;;;21.20;51.49
54306;BME280;66145;45.188;5.712;2023-08-08T06:50:12;99490.63;;;21.16;51.40
54306;BME280;66145;45.188;5.712;2023-08-08T06:52:37;99490.63;;;21.16;51.61
54306;BME280;66145;45.188;5.712;2023-08-08T06:55:03;99485.47;;;21.15;51.69
54306;BME280;66145;45.188;5.712;2023-08-08T06:57:32;99496.13;;;21.16;51.71
54306;BME280;66145;45.188;5.712;2023-08-08T06:59:57;99490.78;;;21.11;51.91
54306;BME280;66145;45.188;5.712;2023-08-08T07:02:23;99495.00;;;21.17;51.68
54306;BME280;66145;45.188;5.712;2023-08-08T07:04:48;99485.13;;;21.07;51.72
54306;BME280;66145;45.188;5.712;2023-08-08T07:07:13;99488.88;;;21.11;51.64
54306;BME280;66145;45.188;5.712;2023-08-08T07:09:39;99480.47;;;21.08;51.67
54306;BME280;66145;45.188;5.712;2023-08-08T07:12:04;99488.03;;;21.11;51.51
54306;BME280;66145;45.188;5.712;2023-08-08T07:14:30;99483.66;;;21.10;51.81
54306;BME280;66145;45.188;5.712;2023-08-08T07:16:55;99492.59;;;21.16;51.85
54306;BME280;66145;45.188;5.712;2023-08-08T07:19:21;99497.41;;;21.19;52.02
54306;BME280;66145;45.188;5.712;2023-08-08T07:21:47;99495.50;;;21.19;52.06
54306;BME280;66145;45.188;5.712;2023-08-08T07:24:12;99472.03;;;21.04;51.80
54306;BME280;66145;45.188;5.712;2023-08-08T07:26:37;99481.41;;;21.12;52.03
54306;BME280;66145;45.188;5.712;2023-08-08T07:29:03;99480.13;;;21.09;52.02
54306;BME280;66145;45.188;5.712;2023-08-08T07:31:31;99465.25;;;20.93;52.04
54306;BME280;66145;45.188;5.712;2023-08-08T07:33:57;99497.44;;;21.01;52.04
54306;BME280;66145;45.188;5.712;2023-08-08T07:36:22;99492.41;;;20.94;52.41
54306;BME280;66145;45.188;5.712;2023-08-08T07:38:47;99484.34;;;20.89;52.27
54306;BME280;66145;45.188;5.712;2023-08-08T07:41:13;99481.75;;;20.84;52.17
54306;BME280;66145;45.188;5.712;2023-08-08T07:43:38;99487.09;;;20.89;52.45
54306;BME280;66145;45.188;5.712;2023-08-08T07:46:04;99469.09;;;20.74;52.33
54306;BME280;66145;45.188;5.712;2023-08-08T07:48:29;99476.38;;;20.79;52.13
54306;BME280;66145;45.188;5.712;2023-08-08T07:50:55;99480.63;;;20.85;52.43
54306;BME280;66145;45.188;5.712;2023-08-08T07:53:20;99481.25;;;20.82;52.38
54306;BME280;66145;45.188;5.712;2023-08-08T07:55:45;99486.59;;;20.87;52.45
54306;BME280;66145;45.188;5.712;2023-08-08T07:58:11;99485.47;;;20.88;52.24
54306;BME280;66145;45.188;5.712;2023-08-08T08:00:36;99481.41;;;20.86;52.28
54306;BME280;66145;45.188;5.712;2023-08-08T08:03:04;99464.41;;;20.75;52.22
54306;BME280;66145;45.188;5.712;2023-08-08T08:05:29;99462.78;;;20.74;52.21
54306;BME280;66145;45.188;5.712;2023-08-08T08:07:55;99468.34;;;20.83;52.03
54306;BME280;66145;45.188;5.712;2023-08-08T08:10:20;99461.84;;;20.78;52.21
54306;BME280;66145;45.188;5.712;2023-08-08T08:12:45;99459.44;;;20.77;52.17
54306;BME280;66145;45.188;5.712;2023-08-08T08:15:11;99470.59;;;20.80;52.25
54306;BME280;66145;45.188;5.712;2023-08-08T08:17:36;99472.50;;;20.80;52.17
54306;BME280;66145;45.188;5.712;2023-08-08T08:20:02;99470.41;;;20.86;52.01
54306;BME280;66145;45.188;5.712;2023-08-08T08:22:36;99463.97;;;20.81;51.88
54306;BME280;66145;45.188;5.712;2023-08-08T08:25:01;99457.59;;;20.72;52.00
54306;BME280;66145;45.188;5.712;2023-08-08T08:27:26;99448.88;;;20.70;51.93
54306;BME280;66145;45.188;5.712;2023-08-08T08:29:52;99459.09;;;20.78;51.87
54306;BME280;66145;45.188;5.712;2023-08-08T08:32:17;99444.19;;;20.71;51.93
54306;BME280;66145;45.188;5.712;2023-08-08T08:34:42;99447.44;;;20.73;52.03
54306;BME280;66145;45.188;5.712;2023-08-08T08:37:09;99449.69;;;20.71;52.10
54306;BME280;66145;45.188;5.712;2023-08-08T08:39:34;99459.75;;;20.75;51.93
54306;BME280;66145;45.188;5.712;2023-08-08T08:42:00;99456.50;;;20.82;52.15
54306;BME280;66145;45.188;5.712;2023-08-08T08:44:30;99448.09;;;20.87;52.20
54306;BME280;66145;45.188;5.712;2023-08-08T08:46:59;99453.13;;;20.85;52.45
54306;BME280;66145;45.188;5.712;2023-08-08T08:49:29;99435.84;;;20.76;52.41
54306;BME280;66145;45.188;5.712;2023-08-08T08:51:55;99432.41;;;20.79;52.59
54306;BME280;66145;45.188;5.712;2023-08-08T08:54:21;99436.47;;;20.81;52.85
54306;BME280;66145;45.188;5.712;2023-08-08T08:56:47;99441.63;;;20.83;52.24
54306;BME280;66145;45.188;5.712;2023-08-08T08:59:13;99428.19;;;20.73;52.26
54306;BME280;66145;45.188;5.712;2023-08-08T09:01:39;99429.31;;;20.72;53.42
54306;BME280;66145;45.188;5.712;2023-08-08T09:04:06;99419.94;;;20.64;53.36
54306;BME280;66145;45.188;5.712;2023-08-08T09:06:33;99436.78;;;20.80;53.77
54306;BME280;66145;45.188;5.712;2023-08-08T09:08:58;99434.03;;;20.80;52.48
54306;BME280;66145;45.188;5.712;2023-08-08T09:11:24;99429.34;;;20.80;53.12
54306;BME280;66145;45.188;5.712;2023-08-08T09:13:51;99427.41;;;20.81;53.64
54306;BME280;66145;45.188;5.712;2023-08-08T09:16:16;99424.50;;;20.77;52.84
54306;BME280;66145;45.188;5.712;2023-08-08T09:18:41;99421.88;;;20.72;53.09
54306;BME280;66145;45.188;5.712;2023-08-08T09:21:07;99415.25;;;20.73;52.91
54306;BME280;66145;45.188;5.712;2023-08-08T09:23:33;99403.94;;;20.66;53.33
54306;BME280;66145;45.188;5.712;2023-08-08T09:25:58;99408.97;;;20.73;52.93
54306;BME280;66145;45.188;5.712;2023-08-08T09:28:24;99413.03;;;20.75;53.12
54306;BME280;66145;45.188;5.712;2023-08-08T09:30:50;99398.75;;;20.73;52.91
54306;BME280;66145;45.188;5.712;2023-08-08T09:33:17;99408.63;;;20.74;53.07
54306;BME280;66145;45.188;5.712;2023-08-08T09:35:43;99385.00;;;20.64;52.95
54306;BME280;66145;45.188;5.712;2023-08-08T09:38:09;99385.00;;;20.64;53.04
54306;BME280;66145;45.188;5.712;2023-08-08T09:40:34;99390.69;;;20.68;52.88
54306;BME280;66145;45.188;5.712;2023-08-08T09:43:00;99369.50;;;20.60;52.73
54306;BME280;66145;45.188;5.712;2023-08-08T09:45:25;99399.88;;;20.72;52.96
54306;BME280;66145;45.188;5.712;2023-08-08T09:47:51;99379.84;;;20.63;52.82
54306;BME280;66145;45.188;5.712;2023-08-08T09:50:18;99388.88;;;20.72;52.89
54306;BME280;66145;45.188;5.712;2023-08-08T09:52:45;99392.47;;;20.73;52.72
54306;BME280;66145;45.188;5.712;2023-08-08T09:55:11;99390.03;;;20.71;52.83
54306;BME280;66145;45.188;5.712;2023-08-08T09:57:39;99376.78;;;20.64;52.88
54306;BME280;66145;45.188;5.712;2023-08-08T10:00:06;99367.25;;;20.62;53.08
54306;BME280;66145;45.188;5.712;2023-08-08T10:02:36;99379.22;;;20.66;52.75
54306;BME280;66145;45.188;5.712;2023-08-08T10:05:04;99370.16;;;20.65;52.79
54306;BME280;66145;45.188;5.712;2023-08-08T10:07:29;99359.97;;;20.57;52.76
54306;BME280;66145;45.188;5.712;2023-08-08T10:09:56;99372.91;;;20.65;52.65
54306;BME280;66145;45.188;5.712;2023-08-08T10:12:22;99367.41;;;20.65;52.82
54306;BME280;66145;45.188;5.712;2023-08-08T10:14:49;99382.91;;;20.70;52.75
54306;BME280;66145;45.188;5.712;2023-08-08T10:17:15;99361.25;;;20.60;52.88
54306;BME280;66145;45.188;5.712;2023-08-08T10:19:53;99336.69;;;20.46;52.95
54306;BME280;66145;45.188;5.712;2023-08-08T10:22:23;99365.78;;;20.64;52.92
54306;BME280;66145;45.188;5.712;2023-08-08T10:24:51;99354.47;;;20.57;52.77
54306;BME280;66145;45.188;5.712;2023-08-08T10:27:27;99340.09;;;20.51;52.75
54306;BME280;66145;45.188;5.712;2023-08-08T10:29:53;99347.22;;;20.52;52.74
54306;BME280;66145;45.188;5.712;2023-08-08T10:32:24;99362.53;;;20.62;52.74
54306;BME280;66145;45.188;5.712;2023-08-08T10:34:55;99358.50;;;20.60;52.80
54306;BME280;66145;45.188;5.712;2023-08-08T10:37:20;99365.13;;;20.67;52.76
54306;BME280;66145;45.188;5.712;2023-08-08T10:39:59;99352.38;;;20.63;52.85
54306;BME280;66145;45.188;5.712;2023-08-08T10:42:26;99362.06;;;20.78;52.89
54306;BME280;66145;45.188;5.712;2023-08-08T10:44:56;99361.91;;;20.83;52.93
54306;BME280;66145;45.188;5.712;2023-08-08T10:47:26;99366.44;;;20.88;52.38
54306;BME280;66145;45.188;5.712;2023-08-08T10:50:11;99364.34;;;20.85;52.08
54306;BME280;66145;45.188;5.712;2023-08-08T10:52:50;99362.41;;;20.85;51.71
54306;BME280;66145;45.188;5.712;2023-08-08T10:55:32;99330.22;;;20.68;51.16
54306;BME280;66145;45.188;5.712;2023-08-08T10:58:02;99357.69;;;20.86;51.43
54306;BME280;66145;45.188;5.712;2023-08-08T11:00:31;99346.69;;;20.86;50.98
54306;BME280;66145;45.188;5.712;2023-08-08T11:02:58;99342.19;;;20.81;51.57
54306;BME280;66145;45.188;5.712;2023-08-08T11:05:25;99351.06;;;20.95;51.91
54306;BME280;66145;45.188;5.712;2023-08-08T11:07:51;99330.03;;;21.00;52.20
54306;BME280;66145;45.188;5.712;2023-08-08T11:10:17;99323.53;;;21.04;52.28
54306;BME280;66145;45.188;5.712;2023-08-08T11:12:53;99317.22;;;21.12;51.99
54306;BME280;66145;45.188;5.712;2023-08-08T11:15:18;99322.84;;;21.16;52.07
54306;BME280;66145;45.188;5.712;2023-08-08T11:17:44;99305.56;;;21.16;51.90
54306;BME280;66145;45.188;5.712;2023-08-08T11:20:10;99311.69;;;21.21;52.21
54306;BME280;66145;45.188;5.712;2023-08-08T11:22:36;99307.63;;;21.19;52.45
54306;BME280;66145;45.188;5.712;2023-08-08T11:25:01;99306.22;;;21.12;52.42
54306;BME280;66145;45.188;5.712;2023-08-08T11:27:28;99297.00;;;21.08;52.13
54306;BME280;66145;45.188;5.712;2023-08-08T11:29:56;99295.41;;;20.99;52.49
54306;BME280;66145;45.188;5.712;2023-08-08T11:32:21;99294.94;;;20.96;52.48
54306;BME280;66145;45.188;5.712;2023-08-08T11:34:47;99295.91;;;21.01;52.39
54306;BME280;66145;45.188;5.712;2023-08-08T11:37:13;99280.69;;;20.94;52.41
54306;BME280;66145;45.188;5.712;2023-08-08T11:39:41;99271.16;;;20.92;52.40
54306;BME280;66145;45.188;5.712;2023-08-08T11:42:07;99269.56;;;20.91;52.38
54306;BME280;66145;45.188;5.712;2023-08-08T11:44:32;99263.56;;;20.89;52.47
54306;BME280;66145;45.188;5.712;2023-08-08T11:47:02;99262.44;;;20.90;52.47
54306;BME280;66145;45.188;5.712;2023-08-08T11:49:27;99279.25;;;20.97;52.43
54306;BME280;66145;45.188;5.712;2023-08-08T11:51:54;99279.56;;;20.95;52.55
54306;BME280;66145;45.188;5.712;2023-08-08T11:54:27;99284.28;;;20.95;52.55
54306;BME280;66145;45.188;5.712;2023-08-08T11:56:53;99265.84;;;20.87;52.51
54306;BME280;66145;45.188;5.712;2023-08-08T11:59:19;99271.69;;;20.85;52.48
54306;BME280;66145;45.188;5.712;2023-08-08T12:01:44;99245.97;;;20.72;52.45
54306;BME280;66145;45.188;5.712;2023-08-08T12:04:10;99264.22;;;20.86;52.54
54306;BME280;66145;45.188;5.712;2023-08-08T12:06:38;99267.63;;;20.91;52.57
54306;BME280;66145;45.188;5.712;2023-08-08T12:09:11;99265.69;;;20.92;52.46
54306;BME280;66145;45.188;5.712;2023-08-08T12:11:38;99257.44;;;20.83;52.51
54306;BME280;66145;45.188;5.712;2023-08-08T12:14:07;99262.13;;;20.91;52.47
54306;BME280;66145;45.188;5.712;2023-08-08T12:16:33;99224.34;;;20.62;52.29
54306;BME280;66145;45.188;5.712;2023-08-08T12:19:01;99257.28;;;20.88;52.56
54306;BME280;66145;45.188;5.712;2023-08-08T12:21:26;99261.66;;;20.89;52.39
54306;BME280;66145;45.188;5.712;2023-08-08T12:23:52;99238.56;;;20.73;52.50
54306;BME280;66145;45.188;5.712;2023-08-08T12:26:18;99252.28;;;20.81;52.66
54306;BME280;66145;45.188;5.712;2023-08-08T12:28:43;99249.22;;;20.83;52.62
54306;BME280;66145;45.188;5.712;2023-08-08T12:31:09;99253.56;;;20.84;52.52
54306;BME280;66145;45.188;5.712;2023-08-08T12:33:34;99242.75;;;20.79;52.63
54306;BME280;66145;45.188;5.712;2023-08-08T12:36:00;99259.06;;;20.84;52.59
54306;BME280;66145;45.188;5.712;2023-08-08T12:38:25;99267.16;;;20.89;52.80
54306;BME280;66145;45.188;5.712;2023-08-08T12:40:51;99256.81;;;20.86;52.55
54306;BME280;66145;45.188;5.712;2023-08-08T12:43:16;99246.47;;;20.83;52.82
54306;BME280;66145;45.188;5.712;2023-08-08T12:45:46;99239.81;;;20.84;52.91
54306;BME280;66145;45.188;5.712;2023-08-08T12:48:12;99237.06;;;20.84;52.64
54306;BME280;66145;45.188;5.712;2023-08-08T12:50:37;99235.59;;;20.87;52.79
54306;BME280;66145;45.188;5.712;2023-08-08T12:53:03;99235.59;;;20.87;52.83
54306;BME280;66145;45.188;5.712;2023-08-08T12:55:30;99227.69;;;20.85;52.45